Strona główna
METAR-TAF:

METAR-TAF

Lotnisko :

Port lotniczy An-Nazur

Nador, Maroko

Szerokość geograficzna: 34-59-20N, Długość geograficzna: 003-01-42W, wysokość: 175 m

Aktualna obserwacja pogody

Raport powstał 1 godzina i 29 minut temu, godzina 18:00 UTC
Wiatr 7 kt od północny wschód, zmienny między północ i wschodnio-północny wschód
Temperatura 25°C
Wilgotność 61%
Ciśnienie 1009 hPa
Widzialność 10 km lub więcej
Brak chmur poniżej 1500 m i brak chmur cumulonimbus

METAR: GMMW 251800Z 05007KT 360V070 CAVOK 25/17 Q1009 NOSIG

czas: 20:29 (19:29 UTC)

Prognoza

Raport powstał 2 godziny i 29 minut temu, godzina 17:00 UTC
Prognoza ważna od 25 godzina 18 UTC do 26 godzina 24 UTC
Wiatr 10 kt od północny wschód
Widzialność 10 km lub więcej
Brak chmur poniżej 1500 m i brak chmur cumulonimbus
Prawdopodobieństwo 30%
od 26 godzina 03 UTC do 26 godzina 10 UTC
Widzialność: 3000 m
Zachmurzenie całkowite na wysokości 800 ft
zamglenie,

TAF: GMMW 251700Z 2518/2624 04010KT CAVOK PROB30 2603/2610 3000 BR OVC008

Obserwacja i prognoza pogody dla ponad 4000 lotnisk (raport METAR i TAF).

Dostępne stacje oznaczono żółtymi i czerwonymi punktami na mapie.

Najedź kursorem aby zobaczyć nazwę stacji.

Kliknij aby zobaczyć obserwacje i prognozy pogody.

Aby zmienić mapę: kliknij na zielony przycisk z czarnym krzyżykiem, aby powiększyć; na zielony przycisk z myślnikiem, aby pomniejszyć; na zielone strzałki, aby przejść do map sąsiednich.


METAR-TAF: